HomeShort term forecast

Short term forecast

Graphical weather forecast for the next 48 hours for Montreal:
Short term forecast
This weather forecast is automatically refreshed every 3 hours.

Hourly Experimental Forecast for the next 48 hours

Overall summary: Light rain this afternoon and evening and windy starting this evening.

 Date & Hour   Temp   Feel   Baro   Hum   Speed & Bearing   Wind Gust   Precip.%   Precip.   Visibility   Cloud cover   Conditions 
 15/10/2018 - 05:00  4.8°C  4.8°C  1018.5 hPa  90%  4.6 km/h   10.0 km/h  8%  0.01 mm/h  16.1km  84%  Mostly Cloudy 
 15/10/2018 - 06:00  5.0°C  3.6°C  1017.9 hPa  89%  6.5 km/h   12.0 km/h  0%  --  16.1km  69%  Mostly Cloudy 
 15/10/2018 - 07:00  5.1°C  3.3°C  1017.4 hPa  88%  7.7 km/h   15.3 km/h  0%  --  16.1km  90%  Mostly Cloudy 
 15/10/2018 - 08:00  5.5°C  3.6°C  1016.7 hPa  88%  8.4 km/h   18.8 km/h  0%  --  16.1km  94%  Overcast 
 15/10/2018 - 09:00  7.1°C  5.2°C  1015.7 hPa  83%  9.8 km/h   23.3 km/h  9%  0.05 mm/h  16.1km  96%  Overcast 
 15/10/2018 - 10:00  8.6°C  6.8°C  1014.6 hPa  77%  11.3 km/h   25.2 km/h  0%  --  16.1km  87%  Mostly Cloudy 
 15/10/2018 - 11:00  10.0°C  8.2°C  1013.4 hPa  73%  13.0 km/h   25.2 km/h  9%  0.03 mm/h  16.1km  81%  Mostly Cloudy 
 15/10/2018 - 12:00  10.3°C  10.3°C  1012.2 hPa  74%  13.8 km/h   24.8 km/h  24%  0.10 mm/h  16.1km  79%  Mostly Cloudy 
 15/10/2018 - 13:00  9.3°C  7.2°C  1010.8 hPa  85%  14.2 km/h   25.5 km/h  54%  0.42 mm/h  16.1km  99%  Overcast 
 15/10/2018 - 14:00  8.9°C  6.6°C  1009.0 hPa  92%  14.3 km/h   26.8 km/h  63%  0.67 mm/h  14.8km  99%  Light Rain 
 15/10/2018 - 15:00  9.0°C  6.8°C  1007.2 hPa  95%  14.2 km/h   30.0 km/h  69%  1.23 mm/h  11.9km  98%  Light Rain 
 15/10/2018 - 16:00  9.7°C  7.7°C  1005.2 hPa  95%  13.6 km/h   31.9 km/h  65%  0.51 mm/h  13.8km  100%  Light Rain 
 15/10/2018 - 17:00  10.6°C  10.6°C  1003.6 hPa  94%  14.2 km/h   34.2 km/h  63%  0.43 mm/h  15.7km  100%  Overcast 
 15/10/2018 - 18:00  11.0°C  11.0°C  1003.1 hPa  94%  18.4 km/h   44.1 km/h  66%  0.62 mm/h  16.1km  96%  Light Rain 
 15/10/2018 - 19:00  11.7°C  11.7°C  1002.7 hPa  94%  22.9 km/h   51.7 km/h  69%  0.81 mm/h  16.1km  91%  Light Rain 
 15/10/2018 - 20:00  11.9°C  11.9°C  1002.7 hPa  92%  26.7 km/h   57.6 km/h  67%  0.86 mm/h  16.1km  88%  Light Rain and Breezy 
 15/10/2018 - 21:00  11.3°C  11.3°C  1003.1 hPa  85%  30.3 km/h   61.9 km/h  43%  0.52 mm/h  16.1km  82%  Breezy and Mostly Cloudy 
 15/10/2018 - 22:00  10.3°C  10.3°C  1004.0 hPa  77%  34.1 km/h   65.2 km/h  24%  0.16 mm/h  16.1km  74%  Windy and Mostly Cloudy 
 15/10/2018 - 23:00  9.0°C  4.9°C  1004.9 hPa  71%  36.9 km/h   67.3 km/h  10%  0.03 mm/h  16.1km  66%  Windy and Mostly Cloudy 
 16/10/2018 - 00:00  7.9°C  3.3°C  1005.7 hPa  68%  38.6 km/h   68.6 km/h  5%  0.01 mm/h  16.1km  53%  Windy and Partly Cloudy 
 16/10/2018 - 01:00  6.6°C  1.5°C  1006.6 hPa  67%  39.5 km/h   69.0 km/h  0%  --  16.1km  39%  Windy and Partly Cloudy 
 16/10/2018 - 02:00  5.5°C  0.0°C  1007.5 hPa  66%  39.8 km/h   68.4 km/h  0%  --  16.1km  29%  Windy and Partly Cloudy 
 16/10/2018 - 03:00  4.7°C  -1.0°C  1008.3 hPa  67%  39.2 km/h   66.7 km/h  0%  --  16.1km  28%  Windy and Partly Cloudy 
 16/10/2018 - 04:00  4.2°C  -1.7°C  1009.1 hPa  69%  38.0 km/h   63.8 km/h  0%  --  16.1km  29%  Windy and Partly Cloudy 
 16/10/2018 - 05:00  3.4°C  -2.5°C  1009.9 hPa  72%  36.2 km/h   60.4 km/h  0%  --  16.1km  30%  Breezy and Partly Cloudy 
 16/10/2018 - 06:00  2.3°C  -3.6°C  1011.0 hPa  78%  32.0 km/h   56.1 km/h  0%  --  16.1km  32%  Breezy and Partly Cloudy 
 16/10/2018 - 07:00  2.0°C  -3.8°C  1012.0 hPa  79%  29.5 km/h   51.1 km/h  0%  --  16.1km  34%  Breezy and Partly Cloudy 
 16/10/2018 - 08:00  2.1°C  -3.5°C  1012.9 hPa  79%  27.8 km/h   47.1 km/h  0%  --  16.1km  34%  Breezy and Partly Cloudy 
 16/10/2018 - 09:00  3.3°C  -1.9°C  1013.5 hPa  72%  26.6 km/h   44.5 km/h  0%  --  16.1km  28%  Breezy and Partly Cloudy 
 16/10/2018 - 10:00  4.5°C  -0.2°C  1014.0 hPa  65%  26.2 km/h   42.8 km/h  0%  --  16.1km  21%  Breezy 
 16/10/2018 - 11:00  5.1°C  0.5°C  1014.1 hPa  62%  26.9 km/h   41.4 km/h  0%  --  16.1km  17%  Breezy 
 16/10/2018 - 12:00  6.2°C  1.9°C  1013.9 hPa  58%  26.3 km/h   39.9 km/h  0%  --  16.1km  18%  Breezy 
 16/10/2018 - 13:00  6.9°C  2.9°C  1013.4 hPa  54%  25.6 km/h   38.6 km/h  0%  --  16.1km  22%  Clear 
 16/10/2018 - 14:00  7.5°C  3.8°C  1012.8 hPa  53%  24.5 km/h   37.5 km/h  0%  --  16.1km  27%  Partly Cloudy 
 16/10/2018 - 15:00  7.9°C  4.4°C  1012.2 hPa  53%  22.9 km/h   36.5 km/h  0%  --  16.1km  39%  Partly Cloudy 
 16/10/2018 - 16:00  8.4°C  5.2°C  1011.6 hPa  54%  20.9 km/h   35.8 km/h  0%  --  16.1km  55%  Partly Cloudy 
 16/10/2018 - 17:00  8.6°C  5.7°C  1011.1 hPa  56%  19.5 km/h   36.1 km/h  0%  --  16.1km  66%  Mostly Cloudy 
 16/10/2018 - 18:00  8.3°C  5.4°C  1010.8 hPa  58%  18.8 km/h   37.9 km/h  0%  --  16.1km  71%  Mostly Cloudy 
 16/10/2018 - 19:00  7.7°C  4.6°C  1010.6 hPa  61%  18.5 km/h   40.8 km/h  0%  --  16.1km  72%  Mostly Cloudy 
 16/10/2018 - 20:00  7.2°C  4.1°C  1010.4 hPa  64%  18.3 km/h   43.3 km/h  0%  --  16.1km  70%  Mostly Cloudy 
 16/10/2018 - 21:00  6.9°C  3.6°C  1009.9 hPa  67%  18.4 km/h   45.3 km/h  0%  --  16.1km  62%  Mostly Cloudy 
 16/10/2018 - 22:00  6.7°C  3.3°C  1009.3 hPa  68%  18.7 km/h   47.1 km/h  0%  --  16.1km  51%  Partly Cloudy 
 16/10/2018 - 23:00  6.5°C  3.2°C  1008.6 hPa  70%  18.8 km/h   48.1 km/h  0%  --  16.1km  44%  Partly Cloudy 
 17/10/2018 - 00:00  6.5°C  3.1°C  1007.9 hPa  72%  18.6 km/h   48.3 km/h  0%  --  16.1km  44%  Partly Cloudy 
 17/10/2018 - 01:00  6.3°C  2.9°C  1007.2 hPa  75%  18.4 km/h   48.0 km/h  7%  0.01 mm/h  16.1km  46%  Partly Cloudy 
 17/10/2018 - 02:00  6.5°C  3.2°C  1006.6 hPa  75%  18.1 km/h   47.1 km/h  9%  0.03 mm/h  16.1km  49%  Partly Cloudy 
 17/10/2018 - 03:00  6.5°C  3.2°C  1005.8 hPa  76%  17.7 km/h   45.4 km/h  14%  0.05 mm/h  16.1km  55%  Partly Cloudy 
 17/10/2018 - 04:00  6.0°C  2.8°C  1005.1 hPa  79%  17.2 km/h   43.0 km/h  21%  0.12 mm/h  16.1km  63%  Mostly Cloudy 
Test

 

Past weather and reports

Past weatherFind in this section the past weather conditions, weather archive, graphics, reports and statistics.

Current conditions

Current weather condition for MontrealAll you need to know about the current weather conditions for Montreal. Weather data is updated every 10 minutes.

Weather forecast

Current Montreal weatherSince 2004, celinium.com website has provided accurate weather forecast for Montreal's island.